Time;durP1;ratioP1;P1;durP2;ratioP2;P2;SDS_P1;SDS_P2;PMS_P1;PMS_P2;Temp;Humidity;BMP_temperature;BMP_pressure;BME280_temperature;BME280_humidity;BME280_pressure;Samples;Min_cycle;Max_cycle;Signal;HPM_P1;HPM_P2
2022/10/31 00:01:29;;;;;;;10.67;5.70;;;;;;;7.13;100.00;96812.78;5004435;28;20501;-78
2022/10/31 00:03:56;;;;;;;5.00;4.47;;;;;;;7.09;100.00;96796.84;5014409;28;20447;-78
2022/10/31 00:06:22;;;;;;;10.63;5.20;;;;;;;6.93;100.00;96777.91;5012191;28;20431;-78
2022/10/31 00:08:55;;;;;;;9.43;6.03;;;;;;;7.18;100.00;96807.44;5031911;28;20461;-78
2022/10/31 00:11:22;;;;;;;25.47;7.00;;;;;;;6.65;100.00;96756.06;5033450;28;21021;-78
2022/10/31 00:13:48;;;;;;;10.80;7.23;;;;;;;6.62;100.00;96761.13;5034042;28;21005;-78
2022/10/31 00:16:20;;;;;;;24.73;8.10;;;;;;;6.49;100.00;96757.41;5048926;28;20499;-78
2022/10/31 00:18:51;;;;;;;15.80;6.57;;;;;;;6.42;100.00;96744.66;5040187;28;20984;-77
2022/10/31 00:21:20;;;;;;;13.37;7.20;;;;;;;6.81;100.00;96786.28;5029658;28;20537;-77
2022/10/31 00:23:47;;;;;;;13.20;6.57;;;;;;;6.53;100.00;96771.53;5049922;28;20480;-77
2022/10/31 00:26:14;;;;;;;21.97;6.60;;;;;;;6.66;100.00;96759.47;5047700;28;20929;-77
2022/10/31 00:28:41;;;;;;;12.63;5.90;;;;;;;6.88;100.00;96796.41;5038762;28;20441;-77
2022/10/31 00:31:11;;;;;;;21.23;6.73;;;;;;;6.54;100.00;96767.81;5047775;28;20469;-77
2022/10/31 00:33:39;;;;;;;9.47;6.93;;;;;;;6.53;100.00;96761.78;5043149;28;20469;-77
2022/10/31 00:36:07;;;;;;;8.33;6.80;;;;;;;6.63;100.00;96788.97;5028189;28;20434;-77
2022/10/31 00:38:34;;;;;;;13.70;6.20;;;;;;;6.61;100.00;96783.22;5000126;28;20541;-77
2022/10/31 00:41:01;;;;;;;13.30;8.80;;;;;;;6.41;100.00;96758.88;5025721;28;20477;-77
2022/10/31 00:43:28;;;;;;;11.23;6.20;;;;;;;6.76;100.00;96799.50;5025636;28;20510;-77
2022/10/31 00:45:54;;;;;;;11.80;6.70;;;;;;;6.60;100.00;96798.22;5040466;28;20966;-78
2022/10/31 00:48:23;;;;;;;11.73;6.70;;;;;;;6.48;100.00;96803.91;5040163;28;20439;-77
2022/10/31 00:50:51;;;;;;;8.87;6.43;;;;;;;6.33;100.00;96777.13;5039812;28;20461;-78
2022/10/31 00:53:18;;;;;;;11.03;6.13;;;;;;;6.46;100.00;96787.66;5039898;28;20528;-77
2022/10/31 00:55:45;;;;;;;17.23;6.43;;;;;;;6.14;100.00;96743.00;5009526;28;20450;-77
2022/10/31 00:58:12;;;;;;;15.10;6.57;;;;;;;6.22;100.00;96743.16;5040209;28;20465;-77
2022/10/31 01:00:40;;;;;;;20.60;7.87;;;;;;;6.49;100.00;96781.06;5021614;28;20431;-77
2022/10/31 01:03:07;;;;;;;11.77;7.03;;;;;;;6.63;100.00;96804.72;5027904;28;20441;-77
2022/10/31 01:05:37;;;;;;;22.83;7.20;;;;;;;6.69;100.00;96798.34;5011327;28;20437;-77
2022/10/31 01:08:04;;;;;;;16.50;6.57;;;;;;;6.18;100.00;96746.66;4995644;28;20440;-77
2022/10/31 01:10:30;;;;;;;19.27;6.83;;;;;;;6.20;100.00;96783.88;5036785;28;20437;-77
2022/10/31 01:12:57;;;;;;;13.60;6.00;;;;;;;5.84;100.00;96752.88;5004688;28;20465;-77
2022/10/31 01:15:24;;;;;;;17.43;8.40;;;;;;;5.79;100.00;96754.81;5017501;28;20439;-77
2022/10/31 01:17:51;;;;;;;17.27;7.07;;;;;;;5.96;100.00;96756.94;5035378;28;20488;-77
2022/10/31 01:20:18;;;;;;;16.07;7.40;;;;;;;6.16;100.00;96806.53;5021338;28;20857;-77
2022/10/31 01:22:44;;;;;;;9.87;5.67;;;;;;;5.92;100.00;96778.53;5043718;28;20462;-77
2022/10/31 01:25:12;;;;;;;9.03;6.47;;;;;;;6.15;100.00;96797.88;5045944;28;21015;-77
2022/10/31 01:27:38;;;;;;;9.53;5.33;;;;;;;6.13;100.00;96781.59;5043025;28;20426;-77
2022/10/31 01:30:10;;;;;;;16.60;6.70;;;;;;;6.02;100.00;96767.09;5039070;28;20441;-77
2022/10/31 01:32:36;;;;;;;5.10;4.33;;;;;;;6.07;100.00;96767.00;5031707;28;20510;-77
2022/10/31 01:35:03;;;;;;;13.10;5.80;;;;;;;6.12;100.00;96766.16;5042809;28;20525;-77
2022/10/31 01:37:31;;;;;;;10.60;5.97;;;;;;;6.00;100.00;96742.19;5042622;28;20445;-77
2022/10/31 01:39:58;;;;;;;9.87;6.70;;;;;;;6.40;100.00;96803.78;5022753;28;20454;-77
2022/10/31 01:42:24;;;;;;;7.67;5.53;;;;;;;6.37;100.00;96799.09;5032156;28;20455;-77
2022/10/31 01:44:55;;;;;;;8.70;5.10;;;;;;;6.23;100.00;96805.09;5045563;28;20469;-77
2022/10/31 01:47:37;;;;;;;7.77;5.43;;;;;;;6.23;100.00;96799.84;5027446;28;20461;-77
2022/10/31 01:50:12;;;;;;;6.80;5.17;;;;;;;6.07;100.00;96805.59;5038905;28;20480;-77
2022/10/31 01:52:43;;;;;;;5.77;5.13;;;;;;;5.97;100.00;96784.75;5039356;28;20857;-77
2022/10/31 01:55:22;;;;;;;15.20;5.77;;;;;;;6.15;100.00;96813.63;5042787;28;20469;-77
2022/10/31 01:57:57;;;;;;;6.83;4.80;;;;;;;5.83;100.00;96761.81;5045322;28;20422;-78
2022/10/31 02:00:24;;;;;;;9.63;5.10;;;;;;;5.67;100.00;96749.97;5044334;28;20457;-78
2022/10/31 02:02:51;;;;;;;17.00;5.50;;;;;;;5.92;100.00;96767.25;5038483;28;20532;-78
2022/10/31 02:05:23;;;;;;;9.50;6.20;;;;;;;6.11;100.00;96815.25;5027352;28;20431;-78
2022/10/31 02:08:12;;;;;;;5.27;4.77;;;;;;;6.08;100.00;96804.53;5045358;28;20470;-78
2022/10/31 02:10:43;;;;;;;10.70;5.90;;;;;;;5.77;100.00;96789.19;5024934;28;20431;-78
2022/10/31 02:13:12;;;;;;;14.03;6.00;;;;;;;5.59;100.00;96787.34;5033537;28;20483;-77
2022/10/31 02:15:49;;;;;;;10.87;5.60;;;;;;;5.36;100.00;96743.59;5022856;28;20437;-78
2022/10/31 02:18:17;;;;;;;9.50;6.33;;;;;;;5.53;100.00;96759.63;5039186;28;20438;-78
2022/10/31 02:21:21;;;;;;;9.60;5.43;;;;;;;5.87;100.00;96789.03;5044573;28;20492;-79
2022/10/31 02:24:06;;;;;;;7.33;5.43;;;;;;;5.82;100.00;96788.34;5002101;28;20488;-78
2022/10/31 02:26:37;;;;;;;9.37;6.20;;;;;;;5.96;100.00;96798.94;5032734;28;20902;-78
2022/10/31 02:29:06;;;;;;;11.23;6.40;;;;;;;5.99;100.00;96793.91;5043077;28;20886;-78
2022/10/31 02:31:49;;;;;;;6.40;4.70;;;;;;;5.82;100.00;96797.00;5044835;28;20449;-78
2022/10/31 02:34:26;;;;;;;12.23;5.73;;;;;;;5.55;100.00;96757.50;5026397;28;20438;-78
2022/10/31 02:37:12;;;;;;;5.83;4.43;;;;;;;5.93;100.00;96805.53;5021850;28;20461;-78
2022/10/31 02:40:05;;;;;;;7.57;5.27;;;;;;;5.80;100.00;96786.00;5039377;28;20493;-78
2022/10/31 02:43:33;;;;;;;8.57;4.70;;;;;;;5.87;100.00;96809.25;5038303;28;20496;-78
2022/10/31 02:46:00;;;;;;;9.70;5.77;;;;;;;5.83;100.00;96809.03;5017728;28;20443;-78
2022/10/31 02:48:31;;;;;;;9.77;6.20;;;;;;;5.75;100.00;96791.34;5023320;28;20434;-78
2022/10/31 02:51:00;;;;;;;8.23;5.70;;;;;;;5.34;100.00;96752.53;5037936;28;20494;-78
2022/10/31 02:53:34;;;;;;;9.70;4.87;;;;;;;5.62;100.00;96803.31;5042250;28;20438;-78
2022/10/31 02:56:16;;;;;;;8.83;5.57;;;;;;;5.40;100.00;96771.59;5044955;28;20484;-78
2022/10/31 02:58:50;;;;;;;5.50;4.93;;;;;;;5.65;100.00;96796.72;5027095;28;20461;-78
2022/10/31 03:01:41;;;;;;;11.07;5.40;;;;;;;5.76;100.00;96799.97;5030955;28;20533;-78
2022/10/31 03:04:43;;;;;;;9.47;5.37;;;;;;;5.64;100.00;96798.56;5044424;28;20837;-78
2022/10/31 03:07:21;;;;;;;6.40;5.70;;;;;;;5.72;100.00;96791.88;5044342;28;20929;-78
2022/10/31 03:09:57;;;;;;;8.00;4.90;;;;;;;5.71;100.00;96792.94;5040526;28;21009;-78
2022/10/31 03:12:34;;;;;;;6.63;5.07;;;;;;;5.74;100.00;96797.63;5023643;28;20457;-78
2022/10/31 03:15:22;;;;;;;8.50;5.60;;;;;;;5.65;100.00;96780.97;5038279;28;20442;-78
2022/10/31 03:18:05;;;;;;;5.43;4.20;;;;;;;5.67;100.00;96781.47;5029283;28;20448;-78
2022/10/31 03:21:06;;;;;;;8.40;6.63;;;;;;;5.41;100.00;96774.97;5037151;28;20480;-78
2022/10/31 03:23:36;;;;;;;8.17;4.70;;;;;;;5.34;100.00;96772.69;5017859;28;20446;-79
2022/10/31 03:26:05;;;;;;;7.63;4.40;;;;;;;5.57;100.00;96798.09;5041072;28;20866;-78
2022/10/31 03:28:44;;;;;;;7.63;5.00;;;;;;;5.26;100.00;96787.22;5020985;28;20433;-78
2022/10/31 03:31:15;;;;;;;9.73;5.27;;;;;;;5.30;100.00;96777.72;5038076;28;20469;-78
2022/10/31 03:33:42;;;;;;;5.77;5.10;;;;;;;5.40;100.00;96789.16;5039064;28;20519;-78
2022/10/31 03:36:12;;;;;;;7.10;4.73;;;;;;;5.49;100.00;96806.63;5024214;28;20950;-78
2022/10/31 03:38:42;;;;;;;7.77;5.10;;;;;;;5.51;100.00;96804.50;5025376;28;20882;-78
2022/10/31 03:41:18;;;;;;;8.33;6.33;;;;;;;5.43;100.00;96802.47;5018269;28;20470;-78
2022/10/31 03:43:56;;;;;;;11.23;6.30;;;;;;;5.51;100.00;96801.09;5043053;28;20488;-78
2022/10/31 03:46:24;;;;;;;8.30;6.00;;;;;;;5.44;100.00;96811.13;5027600;28;20507;-78
2022/10/31 03:48:53;;;;;;;11.97;5.70;;;;;;;5.20;100.00;96766.56;5041830;28;20921;-78
2022/10/31 03:51:33;;;;;;;11.87;7.53;;;;;;;5.64;100.00;96795.94;5036861;28;20454;-78
2022/10/31 03:54:09;;;;;;;10.47;6.40;;;;;;;5.28;100.00;96761.50;5037543;28;20556;-78
2022/10/31 03:57:02;;;;;;;14.53;5.90;;;;;;;5.63;100.00;96814.56;5026011;28;20437;-78
2022/10/31 03:59:34;;;;;;;9.40;6.30;;;;;;;5.39;100.00;96791.00;5020625;28;20469;-78
2022/10/31 04:02:07;;;;;;;10.33;6.40;;;;;;;5.29;100.00;96770.94;5010121;28;20490;-78
2022/10/31 04:04:35;;;;;;;9.33;5.83;;;;;;;5.33;100.00;96786.88;5017394;28;20834;-78
2022/10/31 04:07:07;;;;;;;8.90;6.20;;;;;;;5.38;100.00;96812.25;5043847;28;20441;-79
2022/10/31 04:09:37;;;;;;;13.10;6.20;;;;;;;5.13;100.00;96787.91;5010895;28;20428;-78
2022/10/31 04:12:08;;;;;;;9.23;6.00;;;;;;;5.25;100.00;96798.78;5026879;28;20458;-78
2022/10/31 04:14:55;;;;;;;11.10;6.00;;;;;;;4.93;100.00;96746.19;5020671;28;20442;-78
2022/10/31 04:17:27;;;;;;;7.40;5.13;;;;;;;5.00;100.00;96759.75;5052340;28;20469;-78
2022/10/31 04:19:54;;;;;;;6.57;5.40;;;;;;;5.28;100.00;96797.41;5041036;28;21056;-78
2022/10/31 04:22:20;;;;;;;11.73;6.27;;;;;;;5.23;100.00;96782.53;5047239;28;20465;-78
2022/10/31 04:24:47;;;;;;;6.93;4.73;;;;;;;5.28;100.00;96794.81;5046658;28;20874;-78
2022/10/31 04:27:16;;;;;;;8.57;5.50;;;;;;;5.03;100.00;96752.09;5040539;28;20967;-78
2022/10/31 04:29:43;;;;;;;8.60;6.70;;;;;;;5.04;100.00;96753.66;5040332;28;20452;-78
2022/10/31 04:32:15;;;;;;;6.87;5.13;;;;;;;4.94;100.00;96734.63;5045636;28;20466;-78
2022/10/31 04:34:42;;;;;;;12.23;6.63;;;;;;;5.17;100.00;96794.13;5030416;28;20445;-78
2022/10/31 04:37:09;;;;;;;11.77;6.87;;;;;;;4.85;100.00;96750.22;5042049;28;20499;-78
2022/10/31 04:39:36;;;;;;;13.93;7.03;;;;;;;5.19;100.00;96799.09;5039971;28;20473;-78
2022/10/31 04:42:22;;;;;;;8.70;5.90;;;;;;;5.02;100.00;96768.09;5043375;28;20513;-78
2022/10/31 04:44:48;;;;;;;19.13;8.20;;;;;;;4.87;100.00;96740.22;5037994;28;20469;-78
2022/10/31 04:47:15;;;;;;;15.60;6.33;;;;;;;5.28;100.00;96805.28;5025554;28;20931;-78
2022/10/31 04:49:42;;;;;;;13.40;6.83;;;;;;;5.18;100.00;96787.81;5035172;28;20495;-78
2022/10/31 04:52:11;;;;;;;15.23;6.47;;;;;;;5.27;100.00;96782.75;5041439;28;20469;-78
2022/10/31 04:54:38;;;;;;;13.17;7.90;;;;;;;5.48;100.00;96804.28;5046541;28;20442;-78
2022/10/31 04:57:40;;;;;;;19.90;6.53;;;;;;;5.37;100.00;96797.59;5047730;28;20441;-78
2022/10/31 05:00:09;;;;;;;11.33;5.93;;;;;;;4.97;100.00;96799.59;5043260;28;20830;-78
2022/10/31 05:02:43;;;;;;;11.83;6.10;;;;;;;4.41;100.00;96760.88;5023124;28;20894;-78
2022/10/31 05:05:10;;;;;;;10.30;5.17;;;;;;;4.70;100.00;96769.47;5041057;28;20422;-78
2022/10/31 05:07:46;;;;;;;23.30;6.70;;;;;;;4.48;100.00;96716.81;5046161;28;20474;-78
2022/10/31 05:10:16;;;;;;;10.83;6.87;;;;;;;4.96;100.00;96796.22;5046218;28;20449;-78
2022/10/31 05:13:06;;;;;;;10.90;6.03;;;;;;;5.04;100.00;96797.41;5026805;28;20453;-78
2022/10/31 05:15:51;;;;;;;9.70;6.17;;;;;;;5.07;100.00;96786.38;5040996;28;20418;-78
2022/10/31 05:18:21;;;;;;;11.27;6.57;;;;;;;4.93;100.00;96778.41;5052480;28;20445;-78
2022/10/31 05:21:10;;;;;;;13.20;7.97;;;;;;;4.93;100.00;96778.41;5042825;28;20478;-78
2022/10/31 05:23:42;;;;;;;17.90;8.30;;;;;;;4.72;100.00;96740.41;5026215;28;20446;-78
2022/10/31 05:26:14;;;;;;;19.07;9.60;;;;;;;4.84;100.00;96781.94;5020280;28;20520;-78
2022/10/31 05:28:41;;;;;;;16.33;8.80;;;;;;;4.48;100.00;96735.13;5033993;28;20439;-78
2022/10/31 05:31:07;;;;;;;24.37;10.00;;;;;;;4.58;100.00;96761.22;5044429;28;20454;-78
2022/10/31 05:33:34;;;;;;;23.77;8.60;;;;;;;4.75;100.00;96781.75;5040521;28;20426;-78
2022/10/31 05:36:19;;;;;;;15.10;9.63;;;;;;;4.78;100.00;96777.78;5039334;28;20972;-78
2022/10/31 05:38:56;;;;;;;20.13;9.30;;;;;;;4.72;100.00;96777.06;5027438;28;20447;-78
2022/10/31 05:41:25;;;;;;;19.60;8.23;;;;;;;4.64;100.00;96743.59;5045599;28;20481;-77
2022/10/31 05:44:00;;;;;;;18.47;8.57;;;;;;;4.99;100.00;96779.13;5043384;28;20556;-78
2022/10/31 05:46:28;;;;;;;14.47;8.70;;;;;;;4.98;100.00;96767.09;5022539;28;20449;-78
2022/10/31 05:49:22;;;;;;;15.53;8.20;;;;;;;4.94;100.00;96748.53;5039719;28;20442;-78
2022/10/31 05:52:07;;;;;;;11.83;7.30;;;;;;;4.99;100.00;96758.19;5031151;28;20578;-77
2022/10/31 05:54:44;;;;;;;17.07;9.00;;;;;;;4.77;100.00;96736.94;5037404;28;20475;-77
2022/10/31 05:57:11;;;;;;;18.57;8.53;;;;;;;4.81;100.00;96757.06;5039167;28;20512;-78
2022/10/31 05:59:38;;;;;;;15.60;9.67;;;;;;;4.78;100.00;96759.44;5018474;28;20854;-78
2022/10/31 06:02:05;;;;;;;15.90;9.13;;;;;;;5.01;100.00;96795.34;5045008;28;20485;-78
2022/10/31 06:04:58;;;;;;;13.93;9.57;;;;;;;4.66;100.00;96731.00;5033910;28;20538;-78
2022/10/31 06:07:26;;;;;;;19.60;10.23;;;;;;;4.43;100.00;96716.88;5038200;28;20889;-78
2022/10/31 06:09:52;;;;;;;21.37;10.37;;;;;;;4.66;100.00;96755.38;5031077;28;20438;-78
2022/10/31 06:12:20;;;;;;;21.70;14.20;;;;;;;4.69;100.00;96756.66;5011859;28;20459;-78
2022/10/31 06:15:07;;;;;;;18.57;12.60;;;;;;;4.99;100.00;96793.03;5040053;28;20779;-78
2022/10/31 06:17:35;;;;;;;18.13;11.90;;;;;;;4.62;100.00;96772.69;5025725;28;20468;-78
2022/10/31 06:20:03;;;;;;;16.03;9.70;;;;;;;4.68;100.00;96769.00;5037954;28;20480;-78
2022/10/31 06:22:33;;;;;;;12.70;8.03;;;;;;;4.88;100.00;96772.44;5043928;28;20469;-78
2022/10/31 06:25:00;;;;;;;20.93;10.40;;;;;;;5.12;100.00;96809.91;5043652;28;20437;-78
2022/10/31 06:27:29;;;;;;;17.17;10.10;;;;;;;4.62;100.00;96740.50;5019871;28;20492;-78
2022/10/31 06:29:58;;;;;;;25.13;15.33;;;;;;;5.08;100.00;96814.16;5042460;28;20448;-78
2022/10/31 06:32:30;;;;;;;16.17;13.43;;;;;;;4.74;100.00;96772.31;5021136;28;20470;-78
2022/10/31 06:34:57;;;;;;;14.73;10.83;;;;;;;4.88;100.00;96812.53;5001807;28;20519;-78
2022/10/31 06:37:24;;;;;;;15.37;10.10;;;;;;;4.81;100.00;96790.31;5023872;28;20443;-78
2022/10/31 06:39:53;;;;;;;18.67;11.70;;;;;;;4.48;100.00;96755.28;5031414;28;20478;-78
2022/10/31 06:42:20;;;;;;;15.50;11.30;;;;;;;4.32;100.00;96746.81;5011474;28;21049;-78
2022/10/31 06:44:46;;;;;;;13.80;8.50;;;;;;;4.78;100.00;96809.22;5018287;28;20445;-78
2022/10/31 06:47:53;;;;;;;12.77;10.27;;;;;;;4.96;100.00;96808.53;5038970;28;21013;-78
2022/10/31 06:51:00;;;;;;;13.50;10.70;;;;;;;5.04;100.00;96813.13;5037566;28;20446;-78
2022/10/31 06:53:29;;;;;;;16.40;8.83;;;;;;;4.55;100.00;96727.75;5039165;28;21003;-78
2022/10/31 06:55:56;;;;;;;8.70;7.30;;;;;;;5.11;100.00;96818.84;5021203;28;20439;-78
2022/10/31 06:58:23;;;;;;;11.00;7.73;;;;;;;5.18;100.00;96823.75;5022813;28;20439;-78
2022/10/31 07:00:53;;;;;;;8.33;7.20;;;;;;;4.92;100.00;96782.09;5039494;28;20481;-78
2022/10/31 07:03:20;;;;;;;7.73;7.03;;;;;;;5.24;100.00;96825.25;5039737;28;20863;-78
2022/10/31 07:05:47;;;;;;;23.37;8.93;;;;;;;4.70;100.00;96755.59;5037215;28;20565;-78
2022/10/31 07:08:14;;;;;;;13.23;6.30;;;;;;;5.20;100.00;96830.25;5041592;28;20537;-78
2022/10/31 07:10:42;;;;;;;7.83;6.30;;;;;;;5.32;100.00;96833.28;5010781;28;20439;-78
2022/10/31 07:13:13;;;;;;;7.70;6.90;;;;;;;5.33;100.00;96836.69;5048781;28;20445;-78
2022/10/31 07:15:48;;;;;;;9.03;7.00;;;;;;;5.25;100.00;96817.13;5037299;28;20445;-78
2022/10/31 07:18:15;;;;;;;6.27;5.70;;;;;;;5.36;100.00;96841.38;5018319;28;21216;-78
2022/10/31 07:20:41;;;;;;;12.07;8.83;;;;;;;5.13;100.00;96789.75;5043370;28;20462;-78
2022/10/31 07:23:13;;;;;;;11.63;8.20;;;;;;;5.14;100.00;96771.09;5026905;28;20445;-78
2022/10/31 07:25:42;;;;;;;11.80;10.57;;;;;;;5.39;100.00;96793.63;5018495;28;20449;-78
2022/10/31 07:28:15;;;;;;;11.00;9.80;;;;;;;5.78;100.00;96824.09;5032244;28;20516;-78
2022/10/31 07:30:50;;;;;;;9.90;9.00;;;;;;;5.80;100.00;96825.38;5025974;28;20441;-78
2022/10/31 07:33:19;;;;;;;10.83;8.00;;;;;;;5.67;100.00;96814.78;5023021;28;21015;-78
2022/10/31 07:36:12;;;;;;;13.00;7.63;;;;;;;5.77;100.00;96818.06;5032676;28;20436;-78
2022/10/31 07:38:41;;;;;;;10.47;8.60;;;;;;;5.64;100.00;96787.28;5025030;28;20433;-78
2022/10/31 07:41:08;;;;;;;17.10;11.70;;;;;;;5.70;100.00;96794.00;5037638;28;20687;-78
2022/10/31 07:43:39;;;;;;;13.27;11.30;;;;;;;5.92;100.00;96820.50;5043012;28;20529;-79
2022/10/31 07:46:15;;;;;;;13.70;11.73;;;;;;;5.89;100.00;96771.19;5046067;28;20551;-79
2022/10/31 07:49:14;;;;;;;11.70;10.50;;;;;;;6.24;100.00;96803.25;5025784;28;20814;-79
2022/10/31 07:51:58;;;;;;;12.70;10.50;;;;;;;6.38;100.00;96808.53;5046129;28;20468;-79
2022/10/31 07:54:44;;;;;;;13.23;10.97;;;;;;;6.33;100.00;96801.53;5050023;28;20491;-79
2022/10/31 07:57:11;;;;;;;12.63;10.50;;;;;;;6.17;100.00;96784.47;5048149;28;20766;-79
2022/10/31 07:59:38;;;;;;;17.60;9.00;;;;;;;6.13;100.00;96768.47;5030306;28;20529;-79
2022/10/31 08:02:08;;;;;;;9.80;8.77;;;;;;;6.40;100.00;96788.81;5038859;28;20453;-79
2022/10/31 08:04:47;;;;;;;11.10;7.90;;;;;;;6.47;100.00;96797.09;5031449;28;20409;-79
2022/10/31 08:07:37;;;;;;;11.50;8.13;;;;;;;6.50;100.00;96775.50;5032671;28;20439;-79
2022/10/31 08:10:06;;;;;;;9.23;8.07;;;;;;;6.76;100.00;96811.88;5027755;28;20480;-79
2022/10/31 08:12:34;;;;;;;10.03;7.77;;;;;;;6.65;100.00;96781.56;5040519;28;20492;-79
2022/10/31 08:15:03;;;;;;;8.07;5.60;;;;;;;7.06;100.00;96794.75;5012652;28;20868;-79
2022/10/31 08:17:29;;;;;;;9.77;6.73;;;;;;;7.08;100.00;96771.59;5046424;28;20768;-77
2022/10/31 08:19:58;;;;;;;6.90;6.30;;;;;;;7.52;100.00;96791.25;5030720;28;20445;-77
2022/10/31 08:22:32;;;;;;;8.17;7.17;;;;;;;7.57;100.00;96777.97;5029645;28;20480;-77
2022/10/31 08:25:00;;;;;;;8.60;6.87;;;;;;;8.06;100.00;96826.44;5040259;28;20529;-78
2022/10/31 08:27:27;;;;;;;10.80;7.03;;;;;;;7.81;100.00;96781.16;5045640;28;20458;-77
2022/10/31 08:29:58;;;;;;;8.43;6.10;;;;;;;7.81;100.00;96793.53;5046952;28;20499;-77
2022/10/31 08:32:25;;;;;;;7.63;5.43;;;;;;;7.98;100.00;96801.56;5025845;28;20564;-77
2022/10/31 08:34:51;;;;;;;6.50;5.90;;;;;;;7.85;100.00;96774.22;5041405;28;20426;-77
2022/10/31 08:37:36;;;;;;;6.77;6.07;;;;;;;7.98;100.00;96783.16;5043425;28;20417;-78
2022/10/31 08:40:06;;;;;;;11.60;6.23;;;;;;;8.43;100.00;96815.59;5047043;28;20484;-77
2022/10/31 08:42:34;;;;;;;6.80;6.03;;;;;;;8.09;100.00;96783.69;5045452;28;20464;-77
2022/10/31 08:45:01;;;;;;;6.53;5.70;;;;;;;8.03;100.00;96779.63;5039839;28;20499;-77
2022/10/31 08:47:29;;;;;;;10.07;6.23;;;;;;;8.05;100.00;96783.53;5028402;28;20439;-77
2022/10/31 08:49:57;;;;;;;7.20;5.70;;;;;;;8.44;100.00;96813.75;5040169;28;20439;-77
2022/10/31 08:52:25;;;;;;;7.33;5.30;;;;;;;8.42;100.00;96776.38;5038629;28;20839;-78
2022/10/31 08:55:12;;;;;;;8.00;5.63;;;;;;;8.42;100.00;96784.28;5022340;28;20446;-78
2022/10/31 08:58:13;;;;;;;9.37;6.50;;;;;;;8.33;100.00;96751.81;5013510;28;20485;-77
2022/10/31 09:00:48;;;;;;;6.83;5.70;;;;;;;8.69;100.00;96797.31;5040276;28;20487;-78
2022/10/31 09:03:22;;;;;;;8.63;5.73;;;;;;;8.47;100.00;96747.25;5033287;28;20791;-77
2022/10/31 09:05:50;;;;;;;8.37;6.50;;;;;;;8.73;100.00;96786.94;5046541;28;20536;-77
2022/10/31 09:08:16;;;;;;;8.37;6.50;;;;;;;8.74;100.00;96781.38;5042365;28;20437;-77
2022/10/31 09:10:45;;;;;;;7.43;6.60;;;;;;;8.88;100.00;96787.31;5020279;28;20442;-77
2022/10/31 09:13:20;;;;;;;7.00;4.90;;;;;;;9.04;100.00;96787.69;5032885;28;20458;-77
2022/10/31 09:16:08;;;;;;;16.97;6.27;;;;;;;8.81;100.00;96729.00;5030293;28;20401;-78
2022/10/31 09:18:35;;;;;;;9.03;6.53;;;;;;;9.10;100.00;96773.31;5035420;28;20894;-78
2022/10/31 09:21:02;;;;;;;7.20;5.97;;;;;;;8.72;100.00;96709.72;5041461;28;20473;-78
2022/10/31 09:23:30;;;;;;;14.40;6.77;;;;;;;9.23;100.00;96769.00;5025152;28;20943;-79
2022/10/31 09:26:00;;;;;;;6.83;5.13;;;;;;;9.52;100.00;96794.84;5025853;28;20924;-79
2022/10/31 09:28:31;;;;;;;9.37;6.10;;;;;;;9.69;100.00;96792.22;5037953;28;20427;-80
2022/10/31 09:31:04;;;;;;;8.33;5.17;;;;;;;9.48;100.00;96725.25;5016169;28;20459;-78
2022/10/31 09:33:46;;;;;;;9.90;6.40;;;;;;;9.80;100.00;96758.38;5030142;28;20421;-78
2022/10/31 09:36:48;;;;;;;12.37;6.07;;;;;;;9.87;100.00;96750.75;5039494;28;20455;-78
2022/10/31 09:39:19;;;;;;;8.03;6.20;;;;;;;10.03;100.00;96759.03;5037142;28;20441;-78
2022/10/31 09:42:16;;;;;;;7.50;6.10;;;;;;;10.27;100.00;96761.19;5026986;28;20469;-78
2022/10/31 09:44:53;;;;;;;9.73;6.70;;;;;;;10.77;100.00;96792.38;5016121;28;20894;-78
2022/10/31 09:48:04;;;;;;;16.13;6.50;;;;;;;10.93;100.00;96798.69;5017504;28;20973;-78
2022/10/31 09:50:54;;;;;;;9.63;5.50;;;;;;;11.01;100.00;96795.25;5036091;28;20471;-79
2022/10/31 09:53:45;;;;;;;6.20;5.60;;;;;;;11.07;100.00;96790.53;5027686;28;20480;-80
2022/10/31 09:56:20;;;;;;;13.23;6.10;;;;;;;11.19;100.00;96794.06;5006383;28;20445;-79
2022/10/31 09:58:55;;;;;;;9.57;5.77;;;;;;;11.36;100.00;96795.91;5035108;28;20496;-79
2022/10/31 10:01:40;;;;;;;7.00;6.30;;;;;;;11.44;100.00;96784.47;5029717;28;20864;-80
2022/10/31 10:04:10;;;;;;;10.93;6.40;;;;;;;11.82;100.00;96792.38;5045990;28;20449;-79
2022/10/31 10:06:54;;;;;;;8.73;5.60;;;;;;;11.96;100.00;96752.38;5049638;28;20433;-79
2022/10/31 10:09:47;;;;;;;10.53;6.43;;;;;;;11.90;100.00;96744.94;5043548;28;20442;-79
2022/10/31 10:12:49;;;;;;;8.33;5.53;;;;;;;12.41;100.00;96794.06;5030014;28;20452;-79
2022/10/31 10:15:31;;;;;;;12.53;6.90;;;;;;;12.38;100.00;96790.19;5046192;28;20435;-80
2022/10/31 10:18:18;;;;;;;7.63;6.30;;;;;;;12.36;100.00;96783.69;5046001;28;20512;-80
2022/10/31 10:20:55;;;;;;;7.60;6.33;;;;;;;12.53;100.00;96782.75;5044237;28;20499;-80
2022/10/31 10:23:54;;;;;;;8.27;6.60;;;;;;;12.84;100.00;96774.31;5041072;28;20418;-80
2022/10/31 10:26:34;;;;;;;9.23;5.33;;;;;;;13.09;100.00;96744.03;5028202;28;20439;-80
2022/10/31 10:29:15;;;;;;;8.73;7.20;;;;;;;13.45;100.00;96780.47;5030983;28;20437;-80
2022/10/31 10:31:45;;;;;;;9.10;6.47;;;;;;;13.62;100.00;96758.19;5028668;28;20459;-78
2022/10/31 10:34:24;;;;;;;8.30;6.70;;;;;;;13.84;100.00;96776.31;5043273;28;20450;-78
2022/10/31 10:37:00;;;;;;;7.03;6.33;;;;;;;13.67;100.00;96741.25;5043221;28;20509;-79
2022/10/31 10:39:36;;;;;;;7.80;5.40;;;;;;;13.87;100.00;96769.53;5042838;28;20450;-79
2022/10/31 10:47:47;;;;;;;7.73;6.17;;;;;;;13.63;100.00;96703.97;5022709;28;20477;-79
2022/10/31 10:50:27;;;;;;;9.27;5.60;;;;;;;14.19;100.00;96763.25;5025401;28;20479;-79
2022/10/31 10:53:20;;;;;;;6.10;5.50;;;;;;;14.04;100.00;96724.09;5038505;28;20467;-80
2022/10/31 10:55:58;;;;;;;10.53;6.17;;;;;;;14.32;100.00;96757.88;5026055;28;20513;-80
2022/10/31 10:58:24;;;;;;;7.40;4.93;;;;;;;14.13;100.00;96727.34;5027139;28;20431;-80
2022/10/31 11:00:54;;;;;;;10.97;6.17;;;;;;;13.46;100.00;96612.00;5043986;28;20469;-80
2022/10/31 11:03:21;;;;;;;6.60;5.40;;;;;;;14.31;100.00;96754.47;5045887;28;20413;-80
2022/10/31 11:05:51;;;;;;;7.33;5.17;;;;;;;14.35;100.00;96747.34;5025624;28;20440;-80
2022/10/31 11:08:26;;;;;;;6.50;4.70;;;;;;;14.18;100.00;96718.38;5046238;28;20469;-80
2022/10/31 11:11:02;;;;;;;7.33;4.50;;;;;;;14.43;100.00;96746.41;5018810;28;20504;-80
2022/10/31 11:13:30;;;;;;;7.87;5.40;;;;;;;14.52;100.00;96740.94;5021764;28;20514;-80
2022/10/31 11:16:01;;;;;;;13.83;5.30;;;;;;;14.60;100.00;96734.72;5028444;28;20504;-80
2022/10/31 11:18:39;;;;;;;13.10;7.00;;;;;;;15.24;100.00;96736.25;5044991;28;20470;-80
2022/10/31 11:21:19;;;;;;;13.30;7.73;;;;;;;14.72;100.00;96628.16;5046663;28;20484;-81
2022/10/31 11:23:45;;;;;;;8.23;6.57;;;;;;;15.61;100.00;96736.72;5032063;28;20431;-81
2022/10/31 11:26:20;;;;;;;16.03;6.70;;;;;;;15.66;100.00;96731.13;5036653;28;20911;-80
2022/10/31 11:28:58;;;;;;;9.77;6.03;;;;;;;15.55;100.00;96724.75;5040256;28;20436;-80
2022/10/31 11:31:27;;;;;;;12.47;6.47;;;;;;;15.64;100.00;96724.59;5040107;28;20804;-80
2022/10/31 11:34:03;;;;;;;6.27;5.40;;;;;;;15.43;100.00;96682.22;5046059;28;20470;-80
2022/10/31 11:36:32;;;;;;;8.67;4.93;;;;;;;15.74;100.00;96713.38;5033167;28;20437;-80
2022/10/31 11:39:02;;;;;;;7.70;4.53;;;;;;;15.89;100.00;96717.09;5023042;28;20425;-80
2022/10/31 11:41:38;;;;;;;9.70;6.17;;;;;;;15.89;100.00;96704.56;5036237;28;20493;-80
2022/10/31 11:44:13;;;;;;;6.00;5.00;;;;;;;15.89;100.00;96685.09;5042937;28;20438;-80
2022/10/31 11:46:42;;;;;;;12.43;5.30;;;;;;;15.99;100.00;96662.44;5048176;28;20422;-78
2022/10/31 11:49:19;;;;;;;9.67;5.40;;;;;;;16.17;100.00;96696.31;5012826;28;20442;-80
2022/10/31 11:51:52;;;;;;;8.70;5.00;;;;;;;16.17;100.00;96674.22;5036660;28;20445;-79
2022/10/31 11:54:31;;;;;;;8.40;5.20;;;;;;;16.67;100.00;96697.22;5050120;28;20898;-79
2022/10/31 11:56:58;;;;;;;6.93;4.60;;;;;;;16.73;100.00;96666.44;5044463;28;20442;-79
2022/10/31 11:59:30;;;;;;;5.63;4.40;;;;;;;16.46;100.00;96662.91;5049992;28;20474;-79
2022/10/31 12:01:59;;;;;;;8.27;4.03;;;;;;;16.48;100.00;96651.88;5037066;28;20461;-79
2022/10/31 12:04:40;;;;;;;4.60;4.10;;;;;;;16.84;100.00;96651.34;5021573;28;20434;-79